KCGZ/CGZ METAR and TAF weather

Enter ICAO airport designator
Station Type Date Time Source
KCGZ METAR 2019/04/22 23:56 UTC NOAA

KCGZ 222356Z AUTO 30006KT 10SM CLR 28/M01 A2980 RMK AO2 SLP083 6//// T02831011 10294 20244 56016 PNO $


Station Type Date Time Source
KCGZ Decoded METAR 2019/04/22 23:56 UTC NOAA

Casa Grande, Casa Grande Municipal Airport, AZ, United States (KCGZ) 32-57N 111-46W
Apr 22, 2019 - 07:56 PM EDT / 2019.04.22 2356 UTC
Wind: from the WNW (300 degrees) at 7 MPH (6 KT):0
Visibility: 10 mile(s):0
Sky conditions: clear
Temperature: 82.9 F (28.3 C)
Dew Point: 30.0 F (-1.1 C)
Relative Humidity: 14%
Pressure (altimeter): 29.8 in. Hg (1009 hPa)
Pressure tendency: 0.05 inches (1.6 hPa) lower than three hours ago
ob: KCGZ 222356Z AUTO 30006KT 10SM CLR 28/M01 A2980 RMK AO2 SLP083 6//// T02831011 10294 20244 56016 PNO
cycle: 0

Station Type Date Time Source
KCGZ TAF UTC NOAA

Error!

Example: see airport list